Řízení letového provozu České republiky  
Aktualizace dat:  19.09.2018 19:08:06 UTC English version
   METEO Zobrazení stránky:  19.09.2018 19:09:06 UTC  
vysvětlivky
METAR EDDB 191850Z 17007KT CAVOK 24/12 Q1016 NOSIG=
METAR EDDC 191850Z 18007KT CAVOK 23/11 Q1019 NOSIG=
METAR EDDE 191850Z 20007KT CAVOK 23/12 Q1019 NOSIG=
METAR EDDF 191850Z VRB06KT CAVOK 23/13 Q1018 NOSIG=
METAR EDDM 191850Z 00000KT CAVOK 16/13 Q1022 NOSIG=
METAR EDDN 191850Z 13006KT CAVOK 21/13 Q1020 NOSIG=
METAR EDDP 191850Z 18006KT CAVOK 22/11 Q1017 NOSIG=
METAR EDDT 191850Z 16006KT CAVOK 25/12 Q1016 NOSIG=
METAR EDQM 191750Z 21004KT CAVOK 20/10 Q1021=
METAR EPBY 191900Z VRB02KT CAVOK 18/12 Q1018 =
METAR EPGD 191900Z 15003KT CAVOK 16/15 Q1017 =
METAR EPKK 191900Z 31002KT CAVOK 16/12 Q1021 =
METAR EPKT 191900Z VRB02KT CAVOK 19/10 Q1021 =
METAR EPLL 191900Z VRB01KT CAVOK 19/13 Q1019 =
METAR EPPO 191900Z 14002KT CAVOK 18/12 Q1018 =
METAR EPRZ 191900Z VRB02KT CAVOK 15/13 Q1021 =
METAR EPWA 191900Z 18004KT CAVOK 20/14 Q1019 NOSIG=
METAR EPWR 191900Z VRB01KT CAVOK 20/14 Q1019 =
METAR LHBP 191900Z 34004KT 320V020 CAVOK 18/17 Q1021 NOSIG=
METAR LHSM NIL
METAR LKBC 191900Z AUTO 08002KT CAVOK 16/14 Q1021=
METAR LKCV 191900Z 21006KT CAVOK 20/15 Q1020 NOSIG RMK BLU BLU=
METAR LKKB 191900Z 19006KT CAVOK 21/14 Q1020 NOSIG RMK BLU BLU=
METAR LKKU NIL
METAR LKKV 191900Z 09003KT CAVOK 16/11 Q1022 RMK REG QNH 1018=
METAR LKLN 191900Z AUTO 24004KT 210V280 CAVOK 21/14 Q1021=
METAR LKMT 191900Z 21005KT CAVOK 18/11 Q1021 NOSIG RMK REG QNH 1018 =
METAR LKNA 191900Z 20004KT 160V220 CAVOK 20/14 Q1022 NOSIG RMK BLU BLU=
METAR LKPD 191900Z VRB02KT CAVOK 20/16 Q1020 NOSIG RMK BLU BLU=
METAR LKPR 191900Z 23009KT CAVOK 19/12 Q1020 NOSIG RMK REG QNH 1018=
METAR LKTB 191900Z 04004KT CAVOK 21/15 Q1021 NOSIG RMK REG QNH 1018=
METAR LKVO NIL
METAR LOWI 191850Z VRB02KT CAVOK 17/14 Q1023 NOSIG=
METAR LOWL 191850Z VRB02KT CAVOK 18/15 Q1022 NOSIG=
METAR LOWS 191850Z 16004KT 9999 FEW070 18/14 Q1022 NOSIG=
METAR LOWW 191850Z 19006KT 9999 FEW048 20/14 Q1021 NOSIG=
METAR LZIB 191900Z 36002KT CAVOK 19/15 Q1021=
METAR LZKZ 191900Z 31003KT 280V340 CAVOK 17/11 Q1022=
METAR LZMC 191800Z 17002KT CAVOK 19/14 Q1022=
METAR LZPP 191900Z 36004KT CAVOK 17/12 Q1021=
METAR LZSL 191900Z 00000KT CAVOK 17/11 Q1022=
METAR LZTT 191900Z 26007KT 9999 FEW060 13/10 Q1023=
METAR LZZI 191900Z VRB02KT CAVOK 16/11 Q1022=